McKeesport, Pennsylvania
Current Conditions -  °F | °C
As of 9:53 PM on Saturday 25 Oct 2014 (Local Time) from KAGC Reporting Station
Clear Clear  
Wind Chill: 60°   Ceiling: Unl
Heat Index: 60°   Visibility: 9mi
Dew Point: 49°   Wind: 14mph
Humidity: 67%   Direction: 250°WSW
Pressure: 29.76"   Gusts: NA
Location:  40.35°N, 79.86°W
Report Text: KAGC 260153Z AUTO 25012KT 9SM CLR 16/09 A2976 RMK AO2 SLP080 T01560094 TSNO
Loading
Personal Weather Stations






























Interactive Weather Map
Tropical Storm Tracking
New forecast layout! Learn more

10-Day Weather Forecast

Advertisements
Track Severe Weather on mobile